Time;durP1;ratioP1;P1;durP2;ratioP2;P2;SDS_P1;SDS_P2;PMS_P1;PMS_P2;Temp;Humidity;BMP_temperature;BMP_pressure;BME280_temperature;BME280_humidity;BME280_pressure;Samples;Min_cycle;Max_cycle;Signal;HPM_P1;HPM_P2
2023/05/08 00:00:20;;;;;;;;;17.00;16.67;;;;;21.50;100.00;101714.75;5101902;27;45319;-75
2023/05/08 00:02:45;;;;;;;;;20.00;19.67;;;;;21.52;100.00;101710.75;5101669;27;45187;-75
2023/05/08 00:05:11;;;;;;;;;15.33;15.33;;;;;21.53;100.00;101715.13;5101958;27;45198;-75
2023/05/08 00:07:36;;;;;;;;;20.33;17.00;;;;;21.54;100.00;101715.94;5101620;27;45197;-75
2023/05/08 00:10:03;;;;;;;;;17.00;17.00;;;;;21.53;100.00;101698.91;5101655;27;45204;-74
2023/05/08 00:12:31;;;;;;;;;15.00;15.00;;;;;21.53;100.00;101706.19;5083389;27;45402;-74
2023/05/08 00:14:57;;;;;;;;;17.00;16.67;;;;;21.55;100.00;101701.38;5083338;27;45347;-75
2023/05/08 00:17:22;;;;;;;;;18.67;18.00;;;;;21.55;100.00;101699.50;5083144;27;48072;-75
2023/05/08 00:19:47;;;;;;;;;16.33;16.33;;;;;21.52;100.00;101704.53;5101692;27;45275;-75
2023/05/08 00:22:13;;;;;;;;;16.67;16.00;;;;;21.55;100.00;101698.69;5083051;27;45213;-75
2023/05/08 00:24:38;;;;;;;;;17.67;17.67;;;;;21.55;100.00;101710.31;5083039;27;45218;-74
2023/05/08 00:27:03;;;;;;;;;16.00;15.67;;;;;21.46;100.00;101711.66;5101477;27;45519;-75
2023/05/08 00:29:29;;;;;;;;;15.00;14.00;;;;;21.39;100.00;101706.31;5101304;27;45577;-75
2023/05/08 00:31:55;;;;;;;;;19.00;18.33;;;;;21.37;100.00;101702.19;5101456;27;45270;-75
2023/05/08 00:34:20;;;;;;;;;17.00;17.00;;;;;21.31;100.00;101707.44;5101409;27;45226;-75
2023/05/08 00:36:45;;;;;;;;;18.67;17.67;;;;;21.27;100.00;101703.53;5101368;27;45176;-75
2023/05/08 00:39:11;;;;;;;;;21.67;20.67;;;;;21.17;100.00;101705.91;5080192;27;59310;-75
2023/05/08 00:41:37;;;;;;;;;18.00;18.00;;;;;21.16;100.00;101702.38;5100358;27;45227;-75
2023/05/08 00:44:02;;;;;;;;;16.67;16.67;;;;;21.09;100.00;101696.22;5101205;27;45497;-75
2023/05/08 00:46:28;;;;;;;;;17.33;17.33;;;;;21.12;100.00;101697.63;5101013;27;45614;-75
2023/05/08 00:48:53;;;;;;;;;21.67;20.67;;;;;21.08;100.00;101697.28;5101232;27;45969;-75
2023/05/08 00:51:19;;;;;;;;;19.67;19.67;;;;;21.03;100.00;101702.50;5101101;27;45343;-76
2023/05/08 00:53:45;;;;;;;;;20.00;16.67;;;;;20.99;100.00;101704.84;5101143;27;45361;-75
2023/05/08 00:56:13;;;;;;;;;20.33;19.00;;;;;20.94;100.00;101704.66;5101036;27;45347;-75
2023/05/08 00:58:39;;;;;;;;;18.33;16.33;;;;;20.90;100.00;101703.44;5100645;27;45993;-75
2023/05/08 01:01:05;;;;;;;;;18.67;18.67;;;;;20.87;100.00;101695.75;5100678;27;45262;-75
2023/05/08 01:03:33;;;;;;;;;24.00;19.67;;;;;20.85;100.00;101687.88;5100883;27;45466;-75
2023/05/08 01:05:59;;;;;;;;;16.00;16.00;;;;;20.88;100.00;101697.41;5100878;27;45338;-75
2023/05/08 01:08:24;;;;;;;;;19.33;18.33;;;;;20.89;100.00;101694.47;5100598;27;45365;-75
2023/05/08 01:11:14;;;;;;;;;19.67;18.00;;;;;20.81;100.00;101689.38;5079074;28;45359;-76
2023/05/08 01:13:51;;;;;;;;;22.33;21.67;;;;;20.81;100.00;101690.16;5079219;28;45479;-75
2023/05/08 01:16:23;;;;;;;;;17.33;17.33;;;;;20.83;100.00;101687.25;5099658;27;45299;-75
2023/05/08 01:18:59;;;;;;;;;17.67;17.33;;;;;20.84;100.00;101677.28;5100624;27;45250;-75
2023/05/08 01:21:49;;;;;;;;;22.00;22.00;;;;;20.79;100.00;101677.94;5078725;28;45787;-74
2023/05/08 01:24:41;;;;;;;;;21.00;18.00;;;;;20.78;100.00;101679.00;5099115;27;45384;-75
2023/05/08 01:27:25;;;;;;;;;19.33;18.00;;;;;20.86;100.00;101691.41;5100595;27;45414;-75
2023/05/08 01:29:56;;;;;;;;;22.00;21.00;;;;;20.89;100.00;101690.97;5075908;27;48036;-75
2023/05/08 01:32:37;;;;;;;;;15.00;14.67;;;;;20.88;100.00;101684.72;5081965;27;45437;-75
2023/05/08 01:35:06;;;;;;;;;22.00;21.00;;;;;20.89;100.00;101691.78;5100426;27;45442;-75
2023/05/08 01:37:44;;;;;;;;;17.00;16.33;;;;;20.88;100.00;101705.50;5100096;27;45407;-75
2023/05/08 01:40:20;;;;;;;;;19.00;19.00;;;;;20.86;100.00;101699.50;5081654;27;48182;-75
2023/05/08 01:42:51;;;;;;;;;19.00;17.67;;;;;20.77;100.00;101696.25;5100307;27;45240;-75
2023/05/08 01:45:22;;;;;;;;;22.33;21.67;;;;;20.67;100.00;101688.63;5100605;27;45332;-75
2023/05/08 01:47:55;;;;;;;;;19.00;18.33;;;;;20.72;100.00;101701.47;5100446;27;45868;-75
2023/05/08 01:50:29;;;;;;;;;20.67;20.33;;;;;20.69;100.00;101700.84;5099815;27;45296;-75
2023/05/08 01:53:07;;;;;;;;;23.00;18.67;;;;;20.69;100.00;101711.66;5106028;27;45191;-75
2023/05/08 01:55:35;;;;;;;;;9.67;8.00;;;;;20.66;100.00;101705.88;5107332;27;45523;-75
2023/05/08 01:58:06;;;;;;;;;21.00;20.33;;;;;20.58;100.00;101701.56;5106707;27;45626;-75
2023/05/08 02:00:31;;;;;;;;;20.67;18.67;;;;;20.61;100.00;101705.69;5088352;27;47496;-75
2023/05/08 02:02:58;;;;;;;;;22.00;20.33;;;;;20.63;100.00;101706.31;5106831;27;45226;-75
2023/05/08 02:05:26;;;;;;;;;16.67;16.33;;;;;20.64;100.00;101707.97;5088559;27;45465;-75
2023/05/08 02:07:54;;;;;;;;;19.33;19.33;;;;;20.59;100.00;101705.13;5106550;27;45473;-75
2023/05/08 02:10:23;;;;;;;;;22.33;21.00;;;;;20.58;100.00;101706.13;5106740;27;45270;-75
2023/05/08 02:12:49;;;;;;;;;18.33;18.33;;;;;20.55;100.00;101708.25;5088431;27;45414;-75
2023/05/08 02:15:16;;;;;;;;;18.67;17.00;;;;;20.56;100.00;101714.44;5106920;27;45290;-75
2023/05/08 02:17:45;;;;;;;;;21.67;18.67;;;;;20.52;100.00;101708.69;5088274;27;47188;-76
2023/05/08 02:20:13;;;;;;;;;18.33;14.67;;;;;20.48;100.00;101712.88;5106541;27;45991;-75
2023/05/08 02:22:42;;;;;;;;;19.67;18.67;;;;;20.47;100.00;101705.78;5106405;27;45369;-75
2023/05/08 02:25:10;;;;;;;;;18.33;18.33;;;;;20.49;100.00;101711.81;5106926;27;45288;-75
2023/05/08 02:27:37;;;;;;;;;21.67;21.33;;;;;20.42;100.00;101706.44;5087975;27;46283;-75
2023/05/08 02:30:03;;;;;;;;;13.67;12.67;;;;;20.42;100.00;101702.94;5106493;27;45202;-75
2023/05/08 02:32:30;;;;;;;;;21.67;19.67;;;;;20.44;100.00;101704.34;5106456;27;45357;-75
2023/05/08 02:34:56;;;;;;;;;19.67;19.33;;;;;20.44;100.00;101709.75;5087650;27;45369;-75
2023/05/08 02:37:22;;;;;;;;;23.67;22.00;;;;;20.45;100.00;101699.81;5106288;27;45299;-75
2023/05/08 02:39:50;;;;;;;;;20.33;19.00;;;;;20.45;100.00;101697.09;5106318;27;46259;-75
2023/05/08 02:42:15;;;;;;;;;20.00;18.33;;;;;20.41;100.00;101701.28;5088072;27;45205;-75
2023/05/08 02:44:41;;;;;;;;;19.33;19.33;;;;;20.37;100.00;101691.94;5106269;27;45235;-74
2023/05/08 02:47:26;;;;;;;;;18.33;18.33;;;;;20.34;100.00;101701.31;5106460;27;45447;-75
2023/05/08 02:50:02;;;;;;;;;23.00;19.00;;;;;20.31;100.00;101702.56;5106367;27;45223;-75
2023/05/08 02:52:31;;;;;;;;;21.67;18.67;;;;;20.25;100.00;101706.13;5098013;27;45318;-75
2023/05/08 02:55:07;;;;;;;;;21.33;20.00;;;;;20.17;100.00;101700.97;5088099;27;45315;-75
2023/05/08 02:57:33;;;;;;;;;19.33;19.33;;;;;20.14;100.00;101707.63;5106168;27;45533;-75
2023/05/08 03:00:08;;;;;;;;;16.33;16.00;;;;;20.15;100.00;101701.22;5087676;27;47160;-76
2023/05/08 03:02:41;;;;;;;;;21.00;20.00;;;;;20.14;100.00;101698.72;5097975;27;45213;-75
2023/05/08 03:05:14;;;;;;;;;14.67;14.67;;;;;20.06;100.00;101703.31;5084057;27;45390;-75
2023/05/08 03:07:41;;;;;;;;;17.67;17.00;;;;;19.99;100.00;101705.19;5102578;27;45327;-75
2023/05/08 03:10:14;;;;;;;;;16.33;16.33;;;;;20.01;100.00;101702.31;5102517;27;45372;-76
2023/05/08 03:12:44;;;;;;;;;12.67;11.00;;;;;20.02;100.00;101707.50;5102768;27;45292;-76
2023/05/08 03:15:32;;;;;;;;;17.33;17.33;;;;;19.99;100.00;101699.78;5102834;27;45209;-75
2023/05/08 03:18:02;;;;;;;;;22.33;19.33;;;;;20.00;100.00;101692.53;5102593;27;45284;-74
2023/05/08 03:20:35;;;;;;;;;18.00;16.67;;;;;20.04;100.00;101691.09;5094401;27;45377;-75
2023/05/08 03:23:02;;;;;;;;;20.33;18.33;;;;;20.08;100.00;101708.50;5102135;27;45409;-75
2023/05/08 03:25:29;;;;;;;;;19.00;18.33;;;;;20.02;100.00;101694.00;5102696;27;45256;-75
2023/05/08 03:27:57;;;;;;;;;16.67;16.67;;;;;20.02;100.00;101695.88;5067078;27;47536;-76
2023/05/08 03:30:25;;;;;;;;;21.67;21.67;;;;;19.96;100.00;101694.81;5083532;27;48648;-75
2023/05/08 03:32:53;;;;;;;;;21.67;19.67;;;;;20.01;100.00;101696.91;5102528;27;45385;-75
2023/05/08 03:35:20;;;;;;;;;20.67;20.67;;;;;19.97;100.00;101695.66;5102366;27;45373;-75
2023/05/08 03:37:45;;;;;;;;;18.00;17.33;;;;;19.95;100.00;101695.88;5102183;27;45191;-75
2023/05/08 03:40:11;;;;;;;;;19.00;18.00;;;;;19.91;100.00;101686.56;5101850;27;46322;-75
2023/05/08 03:42:40;;;;;;;;;17.67;17.67;;;;;19.88;100.00;101700.47;5080420;28;45370;-75
2023/05/08 03:45:08;;;;;;;;;20.33;20.33;;;;;19.87;100.00;101698.81;5099807;27;45368;-75
2023/05/08 03:47:35;;;;;;;;;21.67;21.00;;;;;19.79;100.00;101692.59;5102042;27;45161;-75
2023/05/08 03:50:01;;;;;;;;;23.33;21.00;;;;;19.80;100.00;101696.13;5101994;27;45338;-75
2023/05/08 03:52:27;;;;;;;;;19.33;18.33;;;;;19.77;100.00;101702.78;5101823;27;45247;-75
2023/05/08 03:54:53;;;;;;;;;20.67;20.33;;;;;19.72;100.00;101707.16;5080143;28;45435;-75
2023/05/08 03:57:18;;;;;;;;;23.33;22.00;;;;;19.71;100.00;101706.34;5101163;27;45475;-75
2023/05/08 04:00:15;;;;;;;;;22.33;20.67;;;;;19.66;100.00;101701.56;5080171;28;48244;-75
2023/05/08 04:02:49;;;;;;;;;28.33;26.67;;;;;19.61;100.00;101701.41;5101949;27;45492;-75
2023/05/08 04:05:30;;;;;;;;;23.33;22.33;;;;;19.54;100.00;101709.47;5082188;27;45392;-75
2023/05/08 04:08:06;;;;;;;;;21.33;21.33;;;;;19.48;100.00;101702.22;5101571;27;45304;-75
2023/05/08 04:10:45;;;;;;;;;26.67;25.67;;;;;19.51;100.00;101712.59;5094301;27;45257;-75
2023/05/08 04:13:18;;;;;;;;;19.33;19.00;;;;;19.40;100.00;101702.47;5101531;27;45471;-75
2023/05/08 04:15:53;;;;;;;;;25.67;24.00;;;;;19.36;100.00;101712.84;5101542;27;45314;-75
2023/05/08 04:18:27;;;;;;;;;25.00;24.33;;;;;19.32;100.00;101718.84;5101499;27;45461;-75
2023/05/08 04:20:54;;;;;;;;;24.33;24.33;;;;;19.28;100.00;101716.56;5101355;27;45579;-75
2023/05/08 04:23:21;;;;;;;;;21.67;17.67;;;;;19.24;100.00;101709.94;5101242;27;45363;-75
2023/05/08 04:25:50;;;;;;;;;26.33;24.33;;;;;19.23;100.00;101712.84;5079662;28;45316;-75
2023/05/08 04:28:16;;;;;;;;;24.00;22.67;;;;;19.16;100.00;101713.69;5100251;27;45501;-76
2023/05/08 04:30:41;;;;;;;;;23.33;22.67;;;;;19.20;100.00;101716.78;5082871;27;48079;-75
2023/05/08 04:33:08;;;;;;;;;29.33;28.33;;;;;19.17;100.00;101707.28;5082730;27;45318;-75
2023/05/08 04:35:33;;;;;;;;;25.33;25.33;;;;;19.16;100.00;101718.25;5083171;27;45418;-75
2023/05/08 04:37:59;;;;;;;;;25.00;22.67;;;;;19.06;100.00;101705.16;5100988;27;45462;-75
2023/05/08 04:40:25;;;;;;;;;25.67;25.67;;;;;19.00;100.00;101717.59;5074246;27;48111;-75
2023/05/08 04:42:50;;;;;;;;;25.67;23.67;;;;;18.96;100.00;101723.59;5101062;27;45373;-75
2023/05/08 04:45:16;;;;;;;;;24.33;24.33;;;;;18.98;100.00;101732.31;5101396;27;45321;-75
2023/05/08 04:47:41;;;;;;;;;32.33;29.00;;;;;18.90;100.00;101733.34;5101116;27;45466;-75
2023/05/08 04:50:07;;;;;;;;;29.00;27.33;;;;;18.83;100.00;101721.75;5100937;27;49213;-75
2023/05/08 04:52:32;;;;;;;;;29.67;25.00;;;;;18.78;100.00;101735.81;5100734;27;45282;-75
2023/05/08 04:54:57;;;;;;;;;24.33;23.67;;;;;18.83;100.00;101746.81;5101112;27;45319;-75
2023/05/08 04:57:23;;;;;;;;;24.00;20.00;;;;;18.78;100.00;101730.44;5100890;27;45272;-75
2023/05/08 04:59:48;;;;;;;;;23.67;23.67;;;;;18.76;100.00;101733.31;5100814;27;45201;-75
2023/05/08 05:02:14;;;;;;;;;25.67;24.67;;;;;18.76;100.00;101746.78;5101098;27;45229;-75
2023/05/08 05:04:39;;;;;;;;;24.33;24.00;;;;;18.74;100.00;101739.97;5101114;27;45205;-76
2023/05/08 05:07:04;;;;;;;;;25.33;23.67;;;;;18.77;100.00;101747.63;5100717;27;45242;-75
2023/05/08 05:09:30;;;;;;;;;23.00;21.00;;;;;18.74;100.00;101742.66;5099799;27;46194;-75
2023/05/08 05:11:55;;;;;;;;;25.67;24.00;;;;;18.69;100.00;101745.94;5081555;27;45263;-75
2023/05/08 05:14:21;;;;;;;;;23.67;22.67;;;;;18.65;100.00;101750.09;5099584;27;45789;-75
2023/05/08 05:16:46;;;;;;;;;20.00;19.33;;;;;18.63;100.00;101757.53;5100271;27;45282;-75
2023/05/08 05:19:12;;;;;;;;;20.67;18.33;;;;;18.77;100.00;101767.28;5100567;27;45282;-75
2023/05/08 05:21:37;;;;;;;;;20.00;19.33;;;;;18.66;100.00;101757.97;5100593;27;45252;-75
2023/05/08 05:24:04;;;;;;;;;18.67;18.00;;;;;18.63;100.00;101762.91;5080788;27;45937;-75
2023/05/08 05:26:29;;;;;;;;;19.33;17.67;;;;;18.57;100.00;101759.19;5088860;27;45457;-75
2023/05/08 05:28:54;;;;;;;;;17.33;17.33;;;;;18.49;100.00;101768.25;5100291;27;45823;-75
2023/05/08 05:31:20;;;;;;;;;23.67;20.33;;;;;18.42;100.00;101770.09;5082033;27;45363;-74
2023/05/08 05:33:45;;;;;;;;;22.00;20.67;;;;;18.67;100.00;101767.69;5100363;27;45373;-75
2023/05/08 05:36:11;;;;;;;;;21.67;20.67;;;;;18.53;100.00;101761.44;5081929;27;46265;-75
2023/05/08 05:38:36;;;;;;;;;26.67;24.00;;;;;18.59;100.00;101754.44;5100029;27;45347;-75
2023/05/08 05:41:02;;;;;;;;;24.67;20.00;;;;;18.68;100.00;101761.28;5100699;27;45294;-75
2023/05/08 05:43:27;;;;;;;;;21.33;19.67;;;;;18.73;100.00;101755.28;5101330;27;45322;-75
2023/05/08 05:45:54;;;;;;;;;21.67;19.67;;;;;18.75;100.00;101761.28;5083148;27;57342;-75
2023/05/08 05:48:20;;;;;;;;;21.33;20.33;;;;;18.70;100.00;101758.38;5100368;27;46075;-75
2023/05/08 05:50:45;;;;;;;;;16.67;16.67;;;;;18.66;100.00;101757.97;5100120;27;45292;-75
2023/05/08 05:53:10;;;;;;;;;18.67;18.00;;;;;18.64;100.00;101765.41;5081735;27;45283;-74
2023/05/08 05:55:36;;;;;;;;;17.33;16.33;;;;;18.64;100.00;101759.19;5100300;27;45369;-75
2023/05/08 05:58:01;;;;;;;;;16.67;16.00;;;;;18.60;100.00;101757.94;5100125;27;45199;-75
2023/05/08 06:00:26;;;;;;;;;15.33;15.00;;;;;18.55;100.00;101758.53;5081822;27;45299;-75
2023/05/08 06:02:52;;;;;;;;;20.67;20.33;;;;;18.61;100.00;101773.88;5099985;27;45210;-74
2023/05/08 06:05:20;;;;;;;;;24.00;22.67;;;;;18.64;100.00;101775.34;5100008;27;45255;-74
2023/05/08 06:07:45;;;;;;;;;17.00;16.33;;;;;18.61;100.00;101781.13;5099900;27;46072;-75
2023/05/08 06:10:10;;;;;;;;;16.00;16.00;;;;;18.66;100.00;101782.19;5099955;27;45355;-74
2023/05/08 06:12:36;;;;;;;;;14.33;14.33;;;;;18.71;100.00;101776.22;5100162;27;45239;-75
2023/05/08 06:15:02;;;;;;;;;16.67;14.33;;;;;18.71;100.00;101769.97;5099800;27;49227;-74
2023/05/08 06:17:27;;;;;;;;;15.33;14.00;;;;;18.68;100.00;101780.13;5100190;27;45399;-75
2023/05/08 06:19:54;;;;;;;;;18.33;17.33;;;;;18.74;100.00;101781.16;5083770;27;50713;-75
2023/05/08 06:22:23;;;;;;;;;18.67;16.33;;;;;18.70;100.00;101777.22;5102980;27;45182;-74
2023/05/08 06:24:54;;;;;;;;;19.00;17.00;;;;;18.81;100.00;101794.66;5099803;27;45523;-75
2023/05/08 06:27:21;;;;;;;;;20.00;16.33;;;;;18.83;100.00;101791.75;5081107;27;47138;-74
2023/05/08 06:29:49;;;;;;;;;19.00;19.00;;;;;18.90;100.00;101793.44;5099531;27;45340;-74
2023/05/08 06:32:14;;;;;;;;;20.67;17.67;;;;;18.89;100.00;101785.56;5098941;27;45424;-75
2023/05/08 06:34:40;;;;;;;;;17.00;17.00;;;;;18.88;100.00;101792.78;5081126;27;45446;-75
2023/05/08 06:37:05;;;;;;;;;21.67;20.00;;;;;18.99;100.00;101799.44;5080875;27;58284;-75
2023/05/08 06:39:30;;;;;;;;;18.67;17.33;;;;;18.97;100.00;101792.63;5101528;27;45353;-74
2023/05/08 06:41:56;;;;;;;;;16.00;15.33;;;;;18.91;100.00;101799.63;5103436;27;45448;-74
2023/05/08 06:44:21;;;;;;;;;15.33;14.00;;;;;19.02;100.00;101809.81;5102598;27;59245;-74
2023/05/08 06:46:46;;;;;;;;;24.67;21.00;;;;;19.03;100.00;101808.78;5100798;27;45395;-74
2023/05/08 06:49:12;;;;;;;;;17.33;16.00;;;;;19.04;100.00;101809.63;5097940;27;50614;-73
2023/05/08 06:51:38;;;;;;;;;17.33;17.33;;;;;19.09;100.00;101811.72;5102176;27;45358;-74
2023/05/08 06:54:07;;;;;;;;;20.33;17.33;;;;;19.11;100.00;101798.88;5102670;27;45207;-73
2023/05/08 06:56:33;;;;;;;;;20.33;16.00;;;;;19.15;100.00;101805.50;5084341;27;46543;-73
2023/05/08 06:58:58;;;;;;;;;17.00;16.67;;;;;19.19;100.00;101804.06;5102888;27;45440;-73
2023/05/08 07:01:23;;;;;;;;;14.67;12.00;;;;;19.18;100.00;101802.38;5102997;27;45479;-73
2023/05/08 07:03:49;;;;;;;;;17.00;17.00;;;;;19.21;100.00;101812.75;5102847;27;45383;-73
2023/05/08 07:06:14;;;;;;;;;18.00;18.00;;;;;19.17;100.00;101804.28;5102470;27;55118;-73
2023/05/08 07:08:40;;;;;;;;;15.00;15.00;;;;;19.18;100.00;101805.91;5102708;27;45319;-73
2023/05/08 07:11:05;;;;;;;;;19.00;18.00;;;;;19.22;100.00;101800.13;5102928;27;45341;-73
2023/05/08 07:13:30;;;;;;;;;17.00;17.00;;;;;19.19;100.00;101801.38;5102653;27;45685;-74
2023/05/08 07:15:56;;;;;;;;;17.67;16.67;;;;;19.20;100.00;101821.88;5102448;27;45911;-73
2023/05/08 07:18:21;;;;;;;;;20.33;17.67;;;;;19.21;100.00;101823.53;5102683;27;45328;-73
2023/05/08 07:20:46;;;;;;;;;18.67;16.33;;;;;19.21;100.00;101822.72;5083986;27;50274;-74
2023/05/08 07:23:12;;;;;;;;;15.33;14.00;;;;;19.18;100.00;101824.78;5102117;27;45526;-73
2023/05/08 07:25:37;;;;;;;;;18.33;17.67;;;;;19.30;100.00;101832.25;5102237;27;46012;-74
2023/05/08 07:28:03;;;;;;;;;16.00;14.67;;;;;19.39;100.00;101831.00;5102252;27;45306;-73
2023/05/08 07:30:29;;;;;;;;;16.33;16.00;;;;;19.41;100.00;101825.41;5101685;27;45413;-74
2023/05/08 07:32:54;;;;;;;;;20.00;17.33;;;;;19.47;100.00;101835.38;5102523;27;45206;-74
2023/05/08 07:35:19;;;;;;;;;14.33;12.33;;;;;19.47;100.00;101821.91;5101788;27;57250;-74
2023/05/08 07:37:44;;;;;;;;;15.00;15.00;;;;;19.52;100.00;101823.97;5102211;27;45141;-73
2023/05/08 07:40:10;;;;;;;;;16.00;14.67;;;;;19.57;100.00;101828.75;5083497;27;45261;-74
2023/05/08 07:42:43;;;;;;;;;12.00;12.00;;;;;19.57;100.00;101834.94;5102146;27;45349;-75
2023/05/08 07:45:10;;;;;;;;;14.00;13.00;;;;;19.51;100.00;101827.69;5083661;27;48458;-74
2023/05/08 07:47:36;;;;;;;;;18.00;14.33;;;;;19.62;100.00;101855.88;5083656;27;45273;-73
2023/05/08 07:50:02;;;;;;;;;18.33;16.33;;;;;19.45;100.00;101856.31;5101712;27;45289;-73
2023/05/08 07:52:28;;;;;;;;;13.67;13.67;;;;;19.41;100.00;101860.44;5083201;27;46271;-73
2023/05/08 07:54:53;;;;;;;;;17.00;16.00;;;;;19.41;100.00;101857.75;5083392;27;48305;-73
2023/05/08 07:57:18;;;;;;;;;16.33;15.67;;;;;19.49;100.00;101873.75;5101941;27;48298;-73
2023/05/08 07:59:43;;;;;;;;;12.67;12.00;;;;;19.42;100.00;101862.09;5100955;27;50802;-73
2023/05/08 08:02:09;;;;;;;;;13.00;12.00;;;;;19.40;100.00;101861.50;5101692;27;54390;-73
2023/05/08 08:04:34;;;;;;;;;15.67;15.67;;;;;19.40;100.00;101864.19;5101579;27;45278;-74
2023/05/08 08:06:59;;;;;;;;;16.67;16.33;;;;;19.51;100.00;101873.50;5101049;27;50470;-74
2023/05/08 08:09:25;;;;;;;;;16.67;15.00;;;;;19.48;100.00;101863.16;5100278;27;45277;-74
2023/05/08 08:11:50;;;;;;;;;14.33;14.33;;;;;19.62;100.00;101877.47;5100518;27;51741;-74
2023/05/08 08:14:15;;;;;;;;;13.33;13.33;;;;;19.66;100.00;101873.31;5082926;27;48068;-73
2023/05/08 08:16:41;;;;;;;;;18.00;16.67;;;;;19.71;100.00;101880.78;5101484;27;45652;-75
2023/05/08 08:19:07;;;;;;;;;15.33;15.33;;;;;19.76;100.00;101873.75;5083833;27;45335;-75
2023/05/08 08:21:32;;;;;;;;;19.00;18.00;;;;;19.77;100.00;101879.94;5083172;27;46286;-74
2023/05/08 08:23:58;;;;;;;;;14.67;13.33;;;;;19.75;100.00;101882.03;5102997;27;45291;-75
2023/05/08 08:26:24;;;;;;;;;18.67;18.00;;;;;19.76;100.00;101878.28;5086076;27;45454;-75
2023/05/08 08:28:50;;;;;;;;;21.33;20.67;;;;;19.80;100.00;101876.84;5088040;27;45243;-75
2023/05/08 08:31:15;;;;;;;;;22.00;20.67;;;;;19.86;100.00;101880.56;5083186;27;46304;-74
2023/05/08 08:33:41;;;;;;;;;18.67;17.00;;;;;19.92;100.00;101877.03;5081656;28;47537;-75
2023/05/08 08:36:12;;;;;;;;;15.67;14.67;;;;;19.98;100.00;101861.88;5083846;27;45322;-74
2023/05/08 08:38:37;;;;;;;;;17.67;16.33;;;;;20.08;100.00;101866.88;5102723;27;45271;-75
2023/05/08 08:41:03;;;;;;;;;22.33;19.67;;;;;20.20;100.00;101864.34;5081933;27;50225;-74
2023/05/08 08:43:28;;;;;;;;;19.00;16.00;;;;;20.24;100.00;101866.44;5102761;27;45563;-74
2023/05/08 08:45:54;;;;;;;;;16.33;15.67;;;;;20.26;100.00;101871.63;5103881;27;45196;-76
2023/05/08 08:48:24;;;;;;;;;20.33;18.67;;;;;20.34;100.00;101873.22;5102503;27;45389;-76
2023/05/08 08:50:56;;;;;;;;;23.67;22.00;;;;;20.39;100.00;101876.97;5082775;27;46358;-74
2023/05/08 08:53:27;;;;;;;;;22.33;20.67;;;;;20.39;100.00;101876.97;5100555;27;45347;-75
2023/05/08 08:55:55;;;;;;;;;21.00;20.00;;;;;20.41;100.00;101863.25;5101339;27;45317;-75
2023/05/08 08:58:49;;;;;;;;;17.33;17.33;;;;;20.59;100.00;101869.84;5081749;27;45315;-75
2023/05/08 09:01:16;;;;;;;;;20.33;20.33;;;;;20.74;100.00;101880.38;5098171;27;45500;-76
2023/05/08 09:03:42;;;;;;;;;17.67;16.00;;;;;20.86;100.00;101869.72;5100374;27;45478;-75
2023/05/08 09:06:07;;;;;;;;;22.33;20.33;;;;;20.90;100.00;101869.09;5087094;27;49612;-75
2023/05/08 09:08:34;;;;;;;;;16.67;15.00;;;;;20.99;100.00;101864.25;5101050;27;45287;-74
2023/05/08 09:11:00;;;;;;;;;16.33;16.00;;;;;21.22;100.00;101865.53;5100974;27;45835;-74
2023/05/08 09:13:28;;;;;;;;;18.00;18.00;;;;;21.30;100.00;101859.03;5100492;27;45412;-75
2023/05/08 09:15:53;;;;;;;;;16.00;16.00;;;;;21.49;100.00;101862.63;5082180;27;45316;-75
2023/05/08 09:18:19;;;;;;;;;22.00;21.00;;;;;21.64;100.00;101864.19;5081279;27;45419;-75
2023/05/08 09:20:44;;;;;;;;;17.33;17.33;;;;;21.68;100.00;101863.53;5101984;27;45240;-75
2023/05/08 09:23:10;;;;;;;;;21.33;21.33;;;;;21.79;100.00;101874.72;5100136;27;45608;-75
2023/05/08 09:25:45;;;;;;;;;17.67;17.33;;;;;21.85;99.88;101881.09;5089192;27;45235;-74
2023/05/08 09:28:20;;;;;;;;;21.00;18.67;;;;;21.91;98.92;101866.69;5100871;27;45251;-75
2023/05/08 09:30:56;;;;;;;;;17.00;15.00;;;;;21.92;99.43;101871.03;5104490;27;45302;-75
2023/05/08 09:33:24;;;;;;;;;15.33;15.33;;;;;21.81;99.44;101862.59;5100703;27;45283;-75
2023/05/08 09:35:50;;;;;;;;;20.33;19.67;;;;;21.88;100.00;101865.22;5080612;28;45377;-75
2023/05/08 09:38:36;;;;;;;;;16.00;16.00;;;;;22.04;98.91;101865.72;5068485;27;45296;-74
2023/05/08 09:41:15;;;;;;;;;19.33;18.33;;;;;22.01;98.69;101866.16;5080270;27;47464;-75
2023/05/08 09:43:44;;;;;;;;;18.00;16.00;;;;;21.91;97.56;101856.66;5105414;27;45706;-77
2023/05/08 09:46:20;;;;;;;;;19.67;18.33;;;;;21.87;97.72;101876.28;5110418;27;45300;-77
2023/05/08 09:48:46;;;;;;;;;16.33;16.33;;;;;21.77;97.07;101864.13;5103932;27;45326;-75
2023/05/08 09:51:12;;;;;;;;;16.00;16.00;;;;;21.84;96.62;101866.72;5097564;27;45378;-75
2023/05/08 09:53:37;;;;;;;;;20.67;18.67;;;;;21.74;96.60;101867.22;5095609;27;45383;-76
2023/05/08 09:56:04;;;;;;;;;17.00;16.00;;;;;21.70;95.06;101860.63;5102522;27;45582;-75
2023/05/08 09:58:40;;;;;;;;;22.67;18.33;;;;;21.67;97.16;101861.88;5100674;27;45501;-75
2023/05/08 10:01:07;;;;;;;;;21.00;21.00;;;;;21.69;96.79;101859.78;5099160;27;45390;-75
2023/05/08 10:03:49;;;;;;;;;18.00;16.67;;;;;21.62;98.95;101850.91;5090109;28;45338;-75
2023/05/08 10:06:14;;;;;;;;;19.00;19.00;;;;;21.71;98.36;101856.84;5090190;28;45272;-76
2023/05/08 10:08:40;;;;;;;;;17.00;15.67;;;;;21.74;96.93;101860.97;5082245;28;45324;-76
2023/05/08 10:11:16;;;;;;;;;21.67;21.33;;;;;21.70;96.15;101845.19;5085734;28;44737;-76
2023/05/08 10:13:45;;;;;;;;;20.00;20.00;;;;;21.71;95.92;101848.72;5100782;28;45060;-78
2023/05/08 10:16:17;;;;;;;;;24.00;21.00;;;;;21.75;94.96;101852.66;5101651;28;44752;-77
2023/05/08 10:18:48;;;;;;;;;17.33;17.33;;;;;21.75;95.79;101841.84;5105688;28;44714;-76
2023/05/08 10:21:14;;;;;;;;;20.33;19.33;;;;;21.77;96.40;101842.47;5100781;28;45264;-78
2023/05/08 10:23:44;;;;;;;;;22.00;20.33;;;;;21.73;96.63;101860.13;5102838;28;45475;-77
2023/05/08 10:26:15;;;;;;;;;22.33;22.33;;;;;21.70;95.63;101847.09;5102157;28;44693;-77
2023/05/08 10:28:58;;;;;;;;;20.33;20.00;;;;;21.67;95.51;101852.94;5099946;27;45301;-77
2023/05/08 10:31:26;;;;;;;;;20.33;19.67;;;;;21.70;95.89;101822.75;5120416;27;45184;-78
2023/05/08 10:33:55;;;;;;;;;23.67;23.67;;;;;21.74;95.40;101840.19;5116302;27;46023;-78
2023/05/08 10:36:22;;;;;;;;;21.67;20.00;;;;;21.74;96.31;101832.06;5110322;27;45259;-77
2023/05/08 10:38:49;;;;;;;;;22.67;21.00;;;;;21.86;95.79;101831.34;5104310;27;45298;-75
2023/05/08 10:41:14;;;;;;;;;21.67;18.67;;;;;21.95;95.97;101827.28;5104636;27;46270;-75
2023/05/08 10:43:41;;;;;;;;;28.67;24.33;;;;;22.09;95.76;101821.72;5105236;27;45313;-76
2023/05/08 10:46:13;;;;;;;;;22.00;21.67;;;;;22.32;94.91;101821.88;5105680;27;45258;-77
2023/05/08 10:49:17;;;;;;;;;27.33;25.00;;;;;22.56;94.59;101826.56;5118691;27;45165;-77
2023/05/08 10:52:00;;;;;;;;;26.67;26.67;;;;;22.73;92.50;101825.94;5089149;27;47360;-77
2023/05/08 10:54:46;;;;;;;;;25.33;24.67;;;;;22.95;92.70;101826.25;5094922;27;47164;-76
2023/05/08 10:57:12;;;;;;;;;20.00;20.00;;;;;23.24;91.42;101815.59;5105504;27;44767;-76
2023/05/08 10:59:37;;;;;;;;;28.00;24.33;;;;;23.31;91.64;101813.59;5108910;27;50532;-75
2023/05/08 11:02:05;;;;;;;;;17.67;17.67;;;;;23.30;90.58;101809.25;5112621;27;45269;-76
2023/05/08 11:04:31;;;;;;;;;20.00;18.33;;;;;23.44;88.08;101804.44;5112096;27;45375;-76
2023/05/08 11:06:57;;;;;;;;;19.00;18.67;;;;;23.60;90.83;101807.50;5098901;27;45173;-77